<?xml version="1.0" encoding="UTF-8" standalone="no" ?>
<gpx xmlns="http://www.topografix.com/GPX/1/1" xmlns:xsi="http://www.w3.org/2001/XMLSchema-instance" xsi:schemaLocation="http://www.topografix.com/GPX/1/1 http://www.topografix.com/GPX/1/1/gpx.xsd" version="1.1" creator="VisuGPX - https://www.visugpx.com">
  <metadata>
    <name>hudson park</name>
    <desc><![CDATA[hudson park]]></desc>
  </metadata>
  <trk>
    <name><![CDATA[hudson park_1]]></name>
    <trkseg>
      <trkpt lat="40.76304" lon="-73.99983">
        <ele>17</ele>
        <time>2012-04-10T12:59:40Z</time>
      </trkpt>
      <trkpt lat="40.76331" lon="-73.99992">
        <ele>16</ele>
        <time>2012-04-10T13:00:07Z</time>
      </trkpt>
      <trkpt lat="40.76333" lon="-73.99991">
        <ele>16</ele>
        <time>2012-04-10T13:00:09Z</time>
      </trkpt>
      <trkpt lat="40.76334" lon="-73.99989">
        <ele>16</ele>
        <time>2012-04-10T13:00:11Z</time>
      </trkpt>
      <trkpt lat="40.76337" lon="-73.99986">
        <ele>16</ele>
        <time>2012-04-10T13:00:13Z</time>
      </trkpt>
      <trkpt lat="40.76337" lon="-73.99985">
        <ele>16</ele>
        <time>2012-04-10T13:00:14Z</time>
      </trkpt>
      <trkpt lat="40.76337" lon="-73.99983">
        <ele>15</ele>
        <time>2012-04-10T13:00:16Z</time>
      </trkpt>
      <trkpt lat="40.76339" lon="-73.99981">
        <ele>13</ele>
        <time>2012-04-10T13:00:18Z</time>
      </trkpt>
      <trkpt lat="40.7634" lon="-73.9998">
        <ele>11</ele>
        <time>2012-04-10T13:00:20Z</time>
      </trkpt>
      <trkpt lat="40.76341" lon="-73.99978">
        <ele>9</ele>
        <time>2012-04-10T13:00:22Z</time>
      </trkpt>
      <trkpt lat="40.76342" lon="-73.99976">
        <ele>8</ele>
        <time>2012-04-10T13:00:23Z</time>
      </trkpt>
      <trkpt lat="40.76344" lon="-73.99974">
        <ele>7</ele>
        <time>2012-04-10T13:00:25Z</time>
      </trkpt>
      <trkpt lat="40.76346" lon="-73.99973">
        <ele>7</ele>
        <time>2012-04-10T13:00:26Z</time>
      </trkpt>
      <trkpt lat="40.76347" lon="-73.99971">
        <ele>7</ele>
        <time>2012-04-10T13:00:27Z</time>
      </trkpt>
      <trkpt lat="40.76349" lon="-73.99969">
        <ele>7</ele>
        <time>2012-04-10T13:00:28Z</time>
      </trkpt>
      <trkpt lat="40.7635" lon="-73.99969">
        <ele>7</ele>
        <time>2012-04-10T13:00:29Z</time>
      </trkpt>
      <trkpt lat="40.76352" lon="-73.99968">
        <ele>8</ele>
        <time>2012-04-10T13:00:32Z</time>
      </trkpt>
      <trkpt lat="40.76353" lon="-73.99968">
        <ele>8</ele>
        <time>2012-04-10T13:00:34Z</time>
      </trkpt>
      <trkpt lat="40.76355" lon="-73.99966">
        <ele>10</ele>
        <time>2012-04-10T13:00:37Z</time>
      </trkpt>
      <trkpt lat="40.76356" lon="-73.99965">
        <ele>10</ele>
        <time>2012-04-10T13:00:39Z</time>
      </trkpt>
      <trkpt lat="40.76357" lon="-73.99963">
        <ele>10</ele>
        <time>2012-04-10T13:00:40Z</time>
      </trkpt>
      <trkpt lat="40.76359" lon="-73.99961">
        <ele>10</ele>
        <time>2012-04-10T13:00:42Z</time>
      </trkpt>
      <trkpt lat="40.76361" lon="-73.99959">
        <ele>10</ele>
        <time>2012-04-10T13:00:44Z</time>
      </trkpt>
      <trkpt lat="40.76363" lon="-73.99957">
        <ele>10</ele>
        <time>2012-04-10T13:00:46Z</time>
      </trkpt>
      <trkpt lat="40.76365" lon="-73.99955">
        <ele>10</ele>
        <time>2012-04-10T13:00:48Z</time>
      </trkpt>
      <trkpt lat="40.76366" lon="-73.99953">
        <ele>10</ele>
        <time>2012-04-10T13:00:50Z</time>
      </trkpt>
      <trkpt lat="40.76368" lon="-73.99953">
        <ele>10</ele>
        <time>2012-04-10T13:00:51Z</time>
      </trkpt>
      <trkpt lat="40.7637" lon="-73.99951">
        <ele>10</ele>
        <time>2012-04-10T13:00:53Z</time>
      </trkpt>
      <trkpt lat="40.76371" lon="-73.9995">
        <ele>10</ele>
        <time>2012-04-10T13:00:55Z</time>
      </trkpt>
      <trkpt lat="40.76374" lon="-73.99947">
        <ele>10</ele>
        <time>2012-04-10T13:00:57Z</time>
      </trkpt>
      <trkpt lat="40.76375" lon="-73.99947">
        <ele>10</ele>
        <time>2012-04-10T13:00:58Z</time>
      </trkpt>
      <trkpt lat="40.76377" lon="-73.99945">
        <ele>10</ele>
        <time>2012-04-10T13:01:00Z</time>
      </trkpt>
      <trkpt lat="40.76379" lon="-73.99944">
        <ele>10</ele>
        <time>2012-04-10T13:01:02Z</time>
      </trkpt>
      <trkpt lat="40.7638" lon="-73.99943">
        <ele>10</ele>
        <time>2012-04-10T13:01:04Z</time>
      </trkpt>
      <trkpt lat="40.76382" lon="-73.99941">
        <ele>10</ele>
        <time>2012-04-10T13:01:06Z</time>
      </trkpt>
      <trkpt lat="40.76384" lon="-73.99939">
        <ele>10</ele>
        <time>2012-04-10T13:01:08Z</time>
      </trkpt>
      <trkpt lat="40.76385" lon="-73.99938">
        <ele>10</ele>
        <time>2012-04-10T13:01:09Z</time>
      </trkpt>
      <trkpt lat="40.76387" lon="-73.99936">
        <ele>10</ele>
        <time>2012-04-10T13:01:11Z</time>
      </trkpt>
      <trkpt lat="40.76388" lon="-73.99935">
        <ele>10</ele>
        <time>2012-04-10T13:01:12Z</time>
      </trkpt>
      <trkpt lat="40.7639" lon="-73.99934">
        <ele>10</ele>
        <time>2012-04-10T13:01:14Z</time>
      </trkpt>
      <trkpt lat="40.76392" lon="-73.99932">
        <ele>10</ele>
        <time>2012-04-10T13:01:16Z</time>
      </trkpt>
      <trkpt lat="40.76394" lon="-73.99931">
        <ele>10</ele>
        <time>2012-04-10T13:01:18Z</time>
      </trkpt>
      <trkpt lat="40.76396" lon="-73.99931">
        <ele>10</ele>
        <time>2012-04-10T13:01:20Z</time>
      </trkpt>
      <trkpt lat="40.76398" lon="-73.99929">
        <ele>10</ele>
        <time>2012-04-10T13:01:22Z</time>
      </trkpt>
      <trkpt lat="40.76399" lon="-73.99928">
        <ele>10</ele>
        <time>2012-04-10T13:01:23Z</time>
      </trkpt>
      <trkpt lat="40.764" lon="-73.99928">
        <ele>10</ele>
        <time>2012-04-10T13:01:24Z</time>
      </trkpt>
      <trkpt lat="40.76402" lon="-73.99927">
        <ele>10</ele>
        <time>2012-04-10T13:01:25Z</time>
      </trkpt>
      <trkpt lat="40.76403" lon="-73.99925">
        <ele>10</ele>
        <time>2012-04-10T13:01:27Z</time>
      </trkpt>
      <trkpt lat="40.76405" lon="-73.99924">
        <ele>10</ele>
        <time>2012-04-10T13:01:29Z</time>
      </trkpt>
      <trkpt lat="40.76406" lon="-73.99923">
        <ele>10</ele>
        <time>2012-04-10T13:01:31Z</time>
      </trkpt>
      <trkpt lat="40.76407" lon="-73.99921">
        <ele>8</ele>
        <time>2012-04-10T13:01:36Z</time>
      </trkpt>
      <trkpt lat="40.76408" lon="-73.9992">
        <ele>6</ele>
        <time>2012-04-10T13:01:38Z</time>
      </trkpt>
      <trkpt lat="40.7641" lon="-73.99918">
        <ele>5</ele>
        <time>2012-04-10T13:01:40Z</time>
      </trkpt>
      <trkpt lat="40.7641" lon="-73.99915">
        <ele>5</ele>
        <time>2012-04-10T13:01:44Z</time>
      </trkpt>
      <trkpt lat="40.76411" lon="-73.99913">
        <ele>5</ele>
        <time>2012-04-10T13:01:45Z</time>
      </trkpt>
      <trkpt lat="40.76412" lon="-73.99915">
        <ele>5</ele>
        <time>2012-04-10T13:01:47Z</time>
      </trkpt>
      <trkpt lat="40.76413" lon="-73.99912">
        <ele>5</ele>
        <time>2012-04-10T13:01:49Z</time>
      </trkpt>
      <trkpt lat="40.76413" lon="-73.99915">
        <ele>5</ele>
        <time>2012-04-10T13:01:53Z</time>
      </trkpt>
      <trkpt lat="40.76413" lon="-73.99911">
        <ele>6</ele>
        <time>2012-04-10T13:01:58Z</time>
      </trkpt>
      <trkpt lat="40.76413" lon="-73.99909">
        <ele>7</ele>
        <time>2012-04-10T13:02:01Z</time>
      </trkpt>
      <trkpt lat="40.76413" lon="-73.99908">
        <ele>8</ele>
        <time>2012-04-10T13:02:02Z</time>
      </trkpt>
      <trkpt lat="40.76414" lon="-73.99908">
        <ele>11</ele>
        <time>2012-04-10T13:02:05Z</time>
      </trkpt>
      <trkpt lat="40.76416" lon="-73.99907">
        <ele>12</ele>
        <time>2012-04-10T13:02:06Z</time>
      </trkpt>
      <trkpt lat="40.76418" lon="-73.99904">
        <ele>12</ele>
        <time>2012-04-10T13:02:13Z</time>
      </trkpt>
      <trkpt lat="40.7642" lon="-73.99899">
        <ele>12</ele>
        <time>2012-04-10T13:02:14Z</time>
      </trkpt>
      <trkpt lat="40.76421" lon="-73.999">
        <ele>12</ele>
        <time>2012-04-10T13:02:15Z</time>
      </trkpt>
      <trkpt lat="40.76423" lon="-73.99902">
        <ele>12</ele>
        <time>2012-04-10T13:02:18Z</time>
      </trkpt>
      <trkpt lat="40.76424" lon="-73.99904">
        <ele>12</ele>
        <time>2012-04-10T13:02:20Z</time>
      </trkpt>
      <trkpt lat="40.76423" lon="-73.99902">
        <ele>12</ele>
        <time>2012-04-10T13:02:22Z</time>
      </trkpt>
      <trkpt lat="40.76425" lon="-73.99903">
        <ele>11</ele>
        <time>2012-04-10T13:02:26Z</time>
      </trkpt>
      <trkpt lat="40.76424" lon="-73.99902">
        <ele>13</ele>
        <time>2012-04-10T13:02:29Z</time>
      </trkpt>
      <trkpt lat="40.76422" lon="-73.99905">
        <ele>21</ele>
        <time>2012-04-10T13:02:38Z</time>
      </trkpt>
      <trkpt lat="40.76423" lon="-73.99906">
        <ele>22</ele>
        <time>2012-04-10T13:02:39Z</time>
      </trkpt>
      <trkpt lat="40.76424" lon="-73.99904">
        <ele>26</ele>
        <time>2012-04-10T13:02:45Z</time>
      </trkpt>
      <trkpt lat="40.76423" lon="-73.99906">
        <ele>26</ele>
        <time>2012-04-10T13:02:48Z</time>
      </trkpt>
      <trkpt lat="40.76421" lon="-73.99905">
        <ele>26</ele>
        <time>2012-04-10T13:02:50Z</time>
      </trkpt>
      <trkpt lat="40.76423" lon="-73.99906">
        <ele>25</ele>
        <time>2012-04-10T13:02:55Z</time>
      </trkpt>
      <trkpt lat="40.76424" lon="-73.99908">
        <ele>21</ele>
        <time>2012-04-10T13:03:04Z</time>
      </trkpt>
      <trkpt lat="40.76424" lon="-73.99909">
        <ele>21</ele>
        <time>2012-04-10T13:03:08Z</time>
      </trkpt>
      <trkpt lat="40.76424" lon="-73.99911">
        <ele>21</ele>
        <time>2012-04-10T13:03:11Z</time>
      </trkpt>
      <trkpt lat="40.76423" lon="-73.99911">
        <ele>21</ele>
        <time>2012-04-10T13:03:13Z</time>
      </trkpt>
      <trkpt lat="40.76421" lon="-73.99911">
        <ele>21</ele>
        <time>2012-04-10T13:03:15Z</time>
      </trkpt>
      <trkpt lat="40.76419" lon="-73.99911">
        <ele>21</ele>
        <time>2012-04-10T13:03:17Z</time>
      </trkpt>
      <trkpt lat="40.76418" lon="-73.99912">
        <ele>20</ele>
        <time>2012-04-10T13:03:20Z</time>
      </trkpt>
      <trkpt lat="40.76416" lon="-73.99914">
        <ele>19</ele>
        <time>2012-04-10T13:03:23Z</time>
      </trkpt>
      <trkpt lat="40.76416" lon="-73.99917">
        <ele>18</ele>
        <time>2012-04-10T13:03:25Z</time>
      </trkpt>
      <trkpt lat="40.76414" lon="-73.99917">
        <ele>18</ele>
        <time>2012-04-10T13:03:26Z</time>
      </trkpt>
      <trkpt lat="40.76412" lon="-73.99917">
        <ele>17</ele>
        <time>2012-04-10T13:03:28Z</time>
      </trkpt>
      <trkpt lat="40.7641" lon="-73.99918">
        <ele>17</ele>
        <time>2012-04-10T13:03:30Z</time>
      </trkpt>
      <trkpt lat="40.76409" lon="-73.99918">
        <ele>17</ele>
        <time>2012-04-10T13:03:31Z</time>
      </trkpt>
      <trkpt lat="40.76407" lon="-73.9992">
        <ele>17</ele>
        <time>2012-04-10T13:03:34Z</time>
      </trkpt>
      <trkpt lat="40.76406" lon="-73.99921">
        <ele>17</ele>
        <time>2012-04-10T13:03:36Z</time>
      </trkpt>
      <trkpt lat="40.76405" lon="-73.99922">
        <ele>17</ele>
        <time>2012-04-10T13:03:37Z</time>
      </trkpt>
      <trkpt lat="40.76403" lon="-73.99923">
        <ele>17</ele>
        <time>2012-04-10T13:03:38Z</time>
      </trkpt>
      <trkpt lat="40.76402" lon="-73.99922">
        <ele>17</ele>
        <time>2012-04-10T13:03:40Z</time>
      </trkpt>
      <trkpt lat="40.76401" lon="-73.99922">
        <ele>17</ele>
        <time>2012-04-10T13:03:42Z</time>
      </trkpt>
      <trkpt lat="40.76399" lon="-73.99923">
        <ele>17</ele>
        <time>2012-04-10T13:03:44Z</time>
      </trkpt>
      <trkpt lat="40.76398" lon="-73.99924">
        <ele>17</ele>
        <time>2012-04-10T13:03:45Z</time>
      </trkpt>
      <trkpt lat="40.76397" lon="-73.99925">
        <ele>16</ele>
        <time>2012-04-10T13:03:47Z</time>
      </trkpt>
      <trkpt lat="40.76396" lon="-73.99927">
        <ele>16</ele>
        <time>2012-04-10T13:03:49Z</time>
      </trkpt>
      <trkpt lat="40.76394" lon="-73.99928">
        <ele>16</ele>
        <time>2012-04-10T13:03:51Z</time>
      </trkpt>
      <trkpt lat="40.76393" lon="-73.99929">
        <ele>16</ele>
        <time>2012-04-10T13:03:52Z</time>
      </trkpt>
      <trkpt lat="40.7639" lon="-73.99931">
        <ele>16</ele>
        <time>2012-04-10T13:03:54Z</time>
      </trkpt>
      <trkpt lat="40.76388" lon="-73.99932">
        <ele>16</ele>
        <time>2012-04-10T13:03:56Z</time>
      </trkpt>
      <trkpt lat="40.76387" lon="-73.99933">
        <ele>16</ele>
        <time>2012-04-10T13:03:57Z</time>
      </trkpt>
      <trkpt lat="40.76385" lon="-73.99934">
        <ele>16</ele>
        <time>2012-04-10T13:03:59Z</time>
      </trkpt>
      <trkpt lat="40.76383" lon="-73.99935">
        <ele>16</ele>
        <time>2012-04-10T13:04:01Z</time>
      </trkpt>
      <trkpt lat="40.76382" lon="-73.99935">
        <ele>16</ele>
        <time>2012-04-10T13:04:02Z</time>
      </trkpt>
      <trkpt lat="40.7638" lon="-73.99937">
        <ele>16</ele>
        <time>2012-04-10T13:04:04Z</time>
      </trkpt>
      <trkpt lat="40.76378" lon="-73.99938">
        <ele>16</ele>
        <time>2012-04-10T13:04:06Z</time>
      </trkpt>
      <trkpt lat="40.76377" lon="-73.99939">
        <ele>16</ele>
        <time>2012-04-10T13:04:07Z</time>
      </trkpt>
      <trkpt lat="40.76375" lon="-73.9994">
        <ele>16</ele>
        <time>2012-04-10T13:04:08Z</time>
      </trkpt>
      <trkpt lat="40.76374" lon="-73.99942">
        <ele>16</ele>
        <time>2012-04-10T13:04:10Z</time>
      </trkpt>
      <trkpt lat="40.76372" lon="-73.99943">
        <ele>16</ele>
        <time>2012-04-10T13:04:13Z</time>
      </trkpt>
      <trkpt lat="40.7637" lon="-73.99944">
        <ele>16</ele>
        <time>2012-04-10T13:04:15Z</time>
      </trkpt>
      <trkpt lat="40.76369" lon="-73.99945">
        <ele>16</ele>
        <time>2012-04-10T13:04:16Z</time>
      </trkpt>
      <trkpt lat="40.76368" lon="-73.99947">
        <ele>17</ele>
        <time>2012-04-10T13:04:18Z</time>
      </trkpt>
      <trkpt lat="40.76368" lon="-73.99949">
        <ele>17</ele>
        <time>2012-04-10T13:04:22Z</time>
      </trkpt>
      <trkpt lat="40.76367" lon="-73.9995">
        <ele>17</ele>
        <time>2012-04-10T13:04:27Z</time>
      </trkpt>
      <trkpt lat="40.76366" lon="-73.9995">
        <ele>17</ele>
        <time>2012-04-10T13:04:29Z</time>
      </trkpt>
      <trkpt lat="40.76364" lon="-73.9995">
        <ele>17</ele>
        <time>2012-04-10T13:04:31Z</time>
      </trkpt>
      <trkpt lat="40.76362" lon="-73.99951">
        <ele>17</ele>
        <time>2012-04-10T13:04:33Z</time>
      </trkpt>
      <trkpt lat="40.7636" lon="-73.99953">
        <ele>16</ele>
        <time>2012-04-10T13:04:35Z</time>
      </trkpt>
      <trkpt lat="40.76358" lon="-73.99953">
        <ele>16</ele>
        <time>2012-04-10T13:04:37Z</time>
      </trkpt>
      <trkpt lat="40.76357" lon="-73.99955">
        <ele>16</ele>
        <time>2012-04-10T13:04:39Z</time>
      </trkpt>
      <trkpt lat="40.76355" lon="-73.99956">
        <ele>16</ele>
        <time>2012-04-10T13:04:40Z</time>
      </trkpt>
      <trkpt lat="40.76353" lon="-73.99958">
        <ele>16</ele>
        <time>2012-04-10T13:04:42Z</time>
      </trkpt>
      <trkpt lat="40.76352" lon="-73.9996">
        <ele>16</ele>
        <time>2012-04-10T13:04:44Z</time>
      </trkpt>
      <trkpt lat="40.76351" lon="-73.99962">
        <ele>16</ele>
        <time>2012-04-10T13:04:45Z</time>
      </trkpt>
      <trkpt lat="40.7635" lon="-73.99963">
        <ele>16</ele>
        <time>2012-04-10T13:04:46Z</time>
      </trkpt>
      <trkpt lat="40.76348" lon="-73.99966">
        <ele>16</ele>
        <time>2012-04-10T13:04:48Z</time>
      </trkpt>
      <trkpt lat="40.76347" lon="-73.99966">
        <ele>16</ele>
        <time>2012-04-10T13:04:50Z</time>
      </trkpt>
      <trkpt lat="40.76345" lon="-73.99969">
        <ele>16</ele>
        <time>2012-04-10T13:04:52Z</time>
      </trkpt>
      <trkpt lat="40.76343" lon="-73.99969">
        <ele>16</ele>
        <time>2012-04-10T13:04:54Z</time>
      </trkpt>
      <trkpt lat="40.76342" lon="-73.99972">
        <ele>16</ele>
        <time>2012-04-10T13:04:56Z</time>
      </trkpt>
      <trkpt lat="40.7634" lon="-73.99975">
        <ele>16</ele>
        <time>2012-04-10T13:04:58Z</time>
      </trkpt>
      <trkpt lat="40.76339" lon="-73.99976">
        <ele>16</ele>
        <time>2012-04-10T13:04:59Z</time>
      </trkpt>
      <trkpt lat="40.76337" lon="-73.99979">
        <ele>16</ele>
        <time>2012-04-10T13:05:01Z</time>
      </trkpt>
      <trkpt lat="40.76336" lon="-73.9998">
        <ele>16</ele>
        <time>2012-04-10T13:05:02Z</time>
      </trkpt>
      <trkpt lat="40.76334" lon="-73.99982">
        <ele>16</ele>
        <time>2012-04-10T13:05:04Z</time>
      </trkpt>
      <trkpt lat="40.76333" lon="-73.99986">
        <ele>16</ele>
        <time>2012-04-10T13:05:06Z</time>
      </trkpt>
      <trkpt lat="40.76332" lon="-73.99989">
        <ele>16</ele>
        <time>2012-04-10T13:05:08Z</time>
      </trkpt>
      <trkpt lat="40.7633" lon="-73.99991">
        <ele>16</ele>
        <time>2012-04-10T13:05:10Z</time>
      </trkpt>
      <trkpt lat="40.76329" lon="-73.99992">
        <ele>16</ele>
        <time>2012-04-10T13:05:11Z</time>
      </trkpt>
      <trkpt lat="40.76328" lon="-73.99992">
        <ele>16</ele>
        <time>2012-04-10T13:05:12Z</time>
      </trkpt>
      <trkpt lat="40.76326" lon="-73.99992">
        <ele>16</ele>
        <time>2012-04-10T13:05:13Z</time>
      </trkpt>
      <trkpt lat="40.76324" lon="-73.99994">
        <ele>16</ele>
        <time>2012-04-10T13:05:15Z</time>
      </trkpt>
      <trkpt lat="40.76323" lon="-73.99995">
        <ele>16</ele>
        <time>2012-04-10T13:05:17Z</time>
      </trkpt>
      <trkpt lat="40.76321" lon="-73.99996">
        <ele>16</ele>
        <time>2012-04-10T13:05:18Z</time>
      </trkpt>
      <trkpt lat="40.7632" lon="-73.99997">
        <ele>16</ele>
        <time>2012-04-10T13:05:19Z</time>
      </trkpt>
      <trkpt lat="40.76319" lon="-73.99998">
        <ele>16</ele>
        <time>2012-04-10T13:05:20Z</time>
      </trkpt>
      <trkpt lat="40.76318" lon="-73.99998">
        <ele>16</ele>
        <time>2012-04-10T13:05:21Z</time>
      </trkpt>
      <trkpt lat="40.76316" lon="-74.00001">
        <ele>16</ele>
        <time>2012-04-10T13:05:23Z</time>
      </trkpt>
      <trkpt lat="40.76316" lon="-74.00002">
        <ele>16</ele>
        <time>2012-04-10T13:05:24Z</time>
      </trkpt>
      <trkpt lat="40.76315" lon="-74.00004">
        <ele>16</ele>
        <time>2012-04-10T13:05:25Z</time>
      </trkpt>
      <trkpt lat="40.76314" lon="-74.00005">
        <ele>16</ele>
        <time>2012-04-10T13:05:26Z</time>
      </trkpt>
      <trkpt lat="40.76313" lon="-74.00006">
        <ele>16</ele>
        <time>2012-04-10T13:05:27Z</time>
      </trkpt>
      <trkpt lat="40.76311" lon="-74.00009">
        <ele>16</ele>
        <time>2012-04-10T13:05:29Z</time>
      </trkpt>
      <trkpt lat="40.76309" lon="-74.00011">
        <ele>16</ele>
        <time>2012-04-10T13:05:31Z</time>
      </trkpt>
      <trkpt lat="40.76308" lon="-74.00011">
        <ele>16</ele>
        <time>2012-04-10T13:05:32Z</time>
      </trkpt>
      <trkpt lat="40.76308" lon="-74.00013">
        <ele>16</ele>
        <time>2012-04-10T13:05:33Z</time>
      </trkpt>
      <trkpt lat="40.76308" lon="-74.00014">
        <ele>16</ele>
        <time>2012-04-10T13:05:34Z</time>
      </trkpt>
      <trkpt lat="40.76306" lon="-74.00017">
        <ele>16</ele>
        <time>2012-04-10T13:05:36Z</time>
      </trkpt>
      <trkpt lat="40.76306" lon="-74.00018">
        <ele>16</ele>
        <time>2012-04-10T13:05:37Z</time>
      </trkpt>
      <trkpt lat="40.76304" lon="-74.0002">
        <ele>16</ele>
        <time>2012-04-10T13:05:39Z</time>
      </trkpt>
      <trkpt lat="40.76303" lon="-74.00021">
        <ele>15</ele>
        <time>2012-04-10T13:05:40Z</time>
      </trkpt>
      <trkpt lat="40.76302" lon="-74.00024">
        <ele>15</ele>
        <time>2012-04-10T13:05:42Z</time>
      </trkpt>
      <trkpt lat="40.76301" lon="-74.00026">
        <ele>15</ele>
        <time>2012-04-10T13:05:43Z</time>
      </trkpt>
      <trkpt lat="40.76299" lon="-74.00029">
        <ele>14</ele>
        <time>2012-04-10T13:05:45Z</time>
      </trkpt>
      <trkpt lat="40.76298" lon="-74.00031">
        <ele>14</ele>
        <time>2012-04-10T13:05:46Z</time>
      </trkpt>
      <trkpt lat="40.76298" lon="-74.00033">
        <ele>14</ele>
        <time>2012-04-10T13:05:47Z</time>
      </trkpt>
      <trkpt lat="40.76297" lon="-74.00034">
        <ele>13</ele>
        <time>2012-04-10T13:05:49Z</time>
      </trkpt>
      <trkpt lat="40.76297" lon="-74.00037">
        <ele>13</ele>
        <time>2012-04-10T13:05:51Z</time>
      </trkpt>
      <trkpt lat="40.76297" lon="-74.00039">
        <ele>13</ele>
        <time>2012-04-10T13:05:52Z</time>
      </trkpt>
      <trkpt lat="40.76297" lon="-74.00041">
        <ele>13</ele>
        <time>2012-04-10T13:05:53Z</time>
      </trkpt>
      <trkpt lat="40.76296" lon="-74.00043">
        <ele>13</ele>
        <time>2012-04-10T13:05:54Z</time>
      </trkpt>
      <trkpt lat="40.76296" lon="-74.00045">
        <ele>13</ele>
        <time>2012-04-10T13:05:56Z</time>
      </trkpt>
      <trkpt lat="40.76296" lon="-74.00047">
        <ele>13</ele>
        <time>2012-04-10T13:05:57Z</time>
      </trkpt>
      <trkpt lat="40.76296" lon="-74.00049">
        <ele>12</ele>
        <time>2012-04-10T13:05:59Z</time>
      </trkpt>
      <trkpt lat="40.76296" lon="-74.0005">
        <ele>11</ele>
        <time>2012-04-10T13:06:02Z</time>
      </trkpt>
      <trkpt lat="40.76297" lon="-74.00053">
        <ele>11</ele>
        <time>2012-04-10T13:06:05Z</time>
      </trkpt>
      <trkpt lat="40.76297" lon="-74.00054">
        <ele>11</ele>
        <time>2012-04-10T13:06:07Z</time>
      </trkpt>
      <trkpt lat="40.76298" lon="-74.00056">
        <ele>11</ele>
        <time>2012-04-10T13:06:10Z</time>
      </trkpt>
      <trkpt lat="40.76299" lon="-74.00057">
        <ele>14</ele>
        <time>2012-04-10T13:06:15Z</time>
      </trkpt>
      <trkpt lat="40.76297" lon="-74.0006">
        <ele>15</ele>
        <time>2012-04-10T13:06:19Z</time>
      </trkpt>
      <trkpt lat="40.76297" lon="-74.00061">
        <ele>15</ele>
        <time>2012-04-10T13:06:20Z</time>
      </trkpt>
      <trkpt lat="40.76295" lon="-74.00062">
        <ele>15</ele>
        <time>2012-04-10T13:06:22Z</time>
      </trkpt>
      <trkpt lat="40.76294" lon="-74.00063">
        <ele>15</ele>
        <time>2012-04-10T13:06:23Z</time>
      </trkpt>
      <trkpt lat="40.76293" lon="-74.00063">
        <ele>15</ele>
        <time>2012-04-10T13:06:24Z</time>
      </trkpt>
      <trkpt lat="40.7629" lon="-74.00065">
        <ele>15</ele>
        <time>2012-04-10T13:06:26Z</time>
      </trkpt>
      <trkpt lat="40.76289" lon="-74.00067">
        <ele>15</ele>
        <time>2012-04-10T13:06:28Z</time>
      </trkpt>
      <trkpt lat="40.76287" lon="-74.00069">
        <ele>15</ele>
        <time>2012-04-10T13:06:30Z</time>
      </trkpt>
      <trkpt lat="40.76286" lon="-74.00071">
        <ele>15</ele>
        <time>2012-04-10T13:06:32Z</time>
      </trkpt>
      <trkpt lat="40.76286" lon="-74.00073">
        <ele>15</ele>
        <time>2012-04-10T13:06:33Z</time>
      </trkpt>
      <trkpt lat="40.76286" lon="-74.00075">
        <ele>15</ele>
        <time>2012-04-10T13:06:34Z</time>
      </trkpt>
      <trkpt lat="40.76286" lon="-74.00076">
        <ele>15</ele>
        <time>2012-04-10T13:06:35Z</time>
      </trkpt>
      <trkpt lat="40.76286" lon="-74.00078">
        <ele>15</ele>
        <time>2012-04-10T13:06:36Z</time>
      </trkpt>
      <trkpt lat="40.76285" lon="-74.0008">
        <ele>15</ele>
        <time>2012-04-10T13:06:38Z</time>
      </trkpt>
      <trkpt lat="40.76285" lon="-74.00082">
        <ele>15</ele>
        <time>2012-04-10T13:06:39Z</time>
      </trkpt>
      <trkpt lat="40.76285" lon="-74.00083">
        <ele>15</ele>
        <time>2012-04-10T13:06:40Z</time>
      </trkpt>
      <trkpt lat="40.76285" lon="-74.00085">
        <ele>15</ele>
        <time>2012-04-10T13:06:41Z</time>
      </trkpt>
      <trkpt lat="40.76284" lon="-74.00086">
        <ele>15</ele>
        <time>2012-04-10T13:06:42Z</time>
      </trkpt>
      <trkpt lat="40.76284" lon="-74.00089">
        <ele>15</ele>
        <time>2012-04-10T13:06:43Z</time>
      </trkpt>
      <trkpt lat="40.76283" lon="-74.00091">
        <ele>15</ele>
        <time>2012-04-10T13:06:45Z</time>
      </trkpt>
      <trkpt lat="40.76282" lon="-74.00094">
        <ele>15</ele>
        <time>2012-04-10T13:06:47Z</time>
      </trkpt>
      <trkpt lat="40.76282" lon="-74.00095">
        <ele>15</ele>
        <time>2012-04-10T13:06:48Z</time>
      </trkpt>
      <trkpt lat="40.76282" lon="-74.00097">
        <ele>15</ele>
        <time>2012-04-10T13:06:49Z</time>
      </trkpt>
      <trkpt lat="40.76281" lon="-74.001">
        <ele>15</ele>
        <time>2012-04-10T13:06:51Z</time>
      </trkpt>
      <trkpt lat="40.76281" lon="-74.00101">
        <ele>15</ele>
        <time>2012-04-10T13:06:52Z</time>
      </trkpt>
      <trkpt lat="40.7628" lon="-74.00104">
        <ele>15</ele>
        <time>2012-04-10T13:06:54Z</time>
      </trkpt>
      <trkpt lat="40.76279" lon="-74.00106">
        <ele>15</ele>
        <time>2012-04-10T13:06:56Z</time>
      </trkpt>
      <trkpt lat="40.76278" lon="-74.00107">
        <ele>15</ele>
        <time>2012-04-10T13:06:57Z</time>
      </trkpt>
      <trkpt lat="40.76276" lon="-74.0011">
        <ele>14</ele>
        <time>2012-04-10T13:06:59Z</time>
      </trkpt>
      <trkpt lat="40.76274" lon="-74.00112">
        <ele>14</ele>
        <time>2012-04-10T13:07:01Z</time>
      </trkpt>
      <trkpt lat="40.76273" lon="-74.00113">
        <ele>14</ele>
        <time>2012-04-10T13:07:02Z</time>
      </trkpt>
      <trkpt lat="40.76271" lon="-74.00114">
        <ele>14</ele>
        <time>2012-04-10T13:07:03Z</time>
      </trkpt>
      <trkpt lat="40.76271" lon="-74.00114">
        <ele>14</ele>
        <time>2012-04-10T13:07:04Z</time>
      </trkpt>
      <trkpt lat="40.76268" lon="-74.00116">
        <ele>14</ele>
        <time>2012-04-10T13:07:06Z</time>
      </trkpt>
      <trkpt lat="40.76267" lon="-74.00117">
        <ele>14</ele>
        <time>2012-04-10T13:07:08Z</time>
      </trkpt>
      <trkpt lat="40.76267" lon="-74.00119">
        <ele>14</ele>
        <time>2012-04-10T13:07:10Z</time>
      </trkpt>
      <trkpt lat="40.76269" lon="-74.00121">
        <ele>14</ele>
        <time>2012-04-10T13:07:12Z</time>
      </trkpt>
      <trkpt lat="40.7627" lon="-74.00122">
        <ele>14</ele>
        <time>2012-04-10T13:07:14Z</time>
      </trkpt>
      <trkpt lat="40.76272" lon="-74.00123">
        <ele>14</ele>
        <time>2012-04-10T13:07:16Z</time>
      </trkpt>
      <trkpt lat="40.76273" lon="-74.00123">
        <ele>14</ele>
        <time>2012-04-10T13:07:18Z</time>
      </trkpt>
      <trkpt lat="40.76272" lon="-74.00121">
        <ele>13</ele>
        <time>2012-04-10T13:07:20Z</time>
      </trkpt>
      <trkpt lat="40.76273" lon="-74.00122">
        <ele>13</ele>
        <time>2012-04-10T13:07:23Z</time>
      </trkpt>
      <trkpt lat="40.76271" lon="-74.00122">
        <ele>13</ele>
        <time>2012-04-10T13:07:25Z</time>
      </trkpt>
      <trkpt lat="40.7627" lon="-74.00121">
        <ele>13</ele>
        <time>2012-04-10T13:07:28Z</time>
      </trkpt>
      <trkpt lat="40.76271" lon="-74.00123">
        <ele>13</ele>
        <time>2012-04-10T13:07:42Z</time>
      </trkpt>
      <trkpt lat="40.76273" lon="-74.00123">
        <ele>13</ele>
        <time>2012-04-10T13:07:44Z</time>
      </trkpt>
      <trkpt lat="40.76274" lon="-74.00124">
        <ele>13</ele>
        <time>2012-04-10T13:07:45Z</time>
      </trkpt>
      <trkpt lat="40.76275" lon="-74.00124">
        <ele>13</ele>
        <time>2012-04-10T13:07:47Z</time>
      </trkpt>
      <trkpt lat="40.76274" lon="-74.00124">
        <ele>13</ele>
        <time>2012-04-10T13:08:00Z</time>
      </trkpt>
      <trkpt lat="40.76273" lon="-74.00123">
        <ele>13</ele>
        <time>2012-04-10T13:08:07Z</time>
      </trkpt>
      <trkpt lat="40.76274" lon="-74.00123">
        <ele>12</ele>
        <time>2012-04-10T13:08:23Z</time>
      </trkpt>
      <trkpt lat="40.76274" lon="-74.00124">
        <ele>12</ele>
        <time>2012-04-10T13:08:32Z</time>
      </trkpt>
      <trkpt lat="40.76273" lon="-74.00127">
        <ele>12</ele>
        <time>2012-04-10T13:08:34Z</time>
      </trkpt>
      <trkpt lat="40.76273" lon="-74.00128">
        <ele>12</ele>
        <time>2012-04-10T13:08:36Z</time>
      </trkpt>
      <trkpt lat="40.76274" lon="-74.0013">
        <ele>12</ele>
        <time>2012-04-10T13:08:39Z</time>
      </trkpt>
      <trkpt lat="40.76275" lon="-74.0013">
        <ele>12</ele>
        <time>2012-04-10T13:08:44Z</time>
      </trkpt>
      <trkpt lat="40.76273" lon="-74.0013">
        <ele>12</ele>
        <time>2012-04-10T13:08:49Z</time>
      </trkpt>
      <trkpt lat="40.76271" lon="-74.0013">
        <ele>12</ele>
        <time>2012-04-10T13:08:52Z</time>
      </trkpt>
      <trkpt lat="40.76269" lon="-74.00129">
        <ele>11</ele>
        <time>2012-04-10T13:08:54Z</time>
      </trkpt>
      <trkpt lat="40.76268" lon="-74.00129">
        <ele>10</ele>
        <time>2012-04-10T13:08:55Z</time>
      </trkpt>
      <trkpt lat="40.76268" lon="-74.0013">
        <ele>9</ele>
        <time>2012-04-10T13:08:57Z</time>
      </trkpt>
      <trkpt lat="40.76268" lon="-74.00132">
        <ele>9</ele>
        <time>2012-04-10T13:09:01Z</time>
      </trkpt>
      <trkpt lat="40.76269" lon="-74.00134">
        <ele>9</ele>
        <time>2012-04-10T13:09:12Z</time>
      </trkpt>
      <trkpt lat="40.76271" lon="-74.00134">
        <ele>9</ele>
        <time>2012-04-10T13:09:19Z</time>
      </trkpt>
      <trkpt lat="40.76272" lon="-74.00132">
        <ele>9</ele>
        <time>2012-04-10T13:09:21Z</time>
      </trkpt>
      <trkpt lat="40.76273" lon="-74.00131">
        <ele>9</ele>
        <time>2012-04-10T13:09:25Z</time>
      </trkpt>
      <trkpt lat="40.76274" lon="-74.0013">
        <ele>9</ele>
        <time>2012-04-10T13:09:31Z</time>
      </trkpt>
      <trkpt lat="40.76275" lon="-74.00128">
        <ele>9</ele>
        <time>2012-04-10T13:09:34Z</time>
      </trkpt>
      <trkpt lat="40.76276" lon="-74.00127">
        <ele>9</ele>
        <time>2012-04-10T13:09:44Z</time>
      </trkpt>
      <trkpt lat="40.76276" lon="-74.00128">
        <ele>9</ele>
        <time>2012-04-10T13:09:50Z</time>
      </trkpt>
      <trkpt lat="40.76275" lon="-74.0013">
        <ele>9</ele>
        <time>2012-04-10T13:09:55Z</time>
      </trkpt>
      <trkpt lat="40.76274" lon="-74.00132">
        <ele>9</ele>
        <time>2012-04-10T13:10:07Z</time>
      </trkpt>
      <trkpt lat="40.76274" lon="-74.00134">
        <ele>9</ele>
        <time>2012-04-10T13:10:09Z</time>
      </trkpt>
      <trkpt lat="40.76274" lon="-74.00136">
        <ele>12</ele>
        <time>2012-04-10T13:10:12Z</time>
      </trkpt>
      <trkpt lat="40.76273" lon="-74.00137">
        <ele>13</ele>
        <time>2012-04-10T13:10:18Z</time>
      </trkpt>
      <trkpt lat="40.76274" lon="-74.00137">
        <ele>13</ele>
        <time>2012-04-10T13:10:26Z</time>
      </trkpt>
      <trkpt lat="40.76274" lon="-74.0014">
        <ele>13</ele>
        <time>2012-04-10T13:10:30Z</time>
      </trkpt>
      <trkpt lat="40.76273" lon="-74.00141">
        <ele>13</ele>
        <time>2012-04-10T13:10:32Z</time>
      </trkpt>
      <trkpt lat="40.76271" lon="-74.00141">
        <ele>13</ele>
        <time>2012-04-10T13:10:34Z</time>
      </trkpt>
      <trkpt lat="40.7627" lon="-74.00142">
        <ele>13</ele>
        <time>2012-04-10T13:10:35Z</time>
      </trkpt>
      <trkpt lat="40.76268" lon="-74.00143">
        <ele>13</ele>
        <time>2012-04-10T13:10:38Z</time>
      </trkpt>
      <trkpt lat="40.76266" lon="-74.00143">
        <ele>13</ele>
        <time>2012-04-10T13:10:38Z</time>
      </trkpt>
      <trkpt lat="40.76265" lon="-74.00143">
        <ele>13</ele>
        <time>2012-04-10T13:10:39Z</time>
      </trkpt>
      <trkpt lat="40.76263" lon="-74.00143">
        <ele>12</ele>
        <time>2012-04-10T13:10:41Z</time>
      </trkpt>
      <trkpt lat="40.76261" lon="-74.00143">
        <ele>11</ele>
        <time>2012-04-10T13:10:44Z</time>
      </trkpt>
      <trkpt lat="40.7626" lon="-74.00144">
        <ele>11</ele>
        <time>2012-04-10T13:10:46Z</time>
      </trkpt>
      <trkpt lat="40.76258" lon="-74.00145">
        <ele>11</ele>
        <time>2012-04-10T13:10:48Z</time>
      </trkpt>
      <trkpt lat="40.76257" lon="-74.00146">
        <ele>11</ele>
        <time>2012-04-10T13:10:50Z</time>
      </trkpt>
      <trkpt lat="40.76255" lon="-74.00147">
        <ele>11</ele>
        <time>2012-04-10T13:10:52Z</time>
      </trkpt>
      <trkpt lat="40.76254" lon="-74.00148">
        <ele>11</ele>
        <time>2012-04-10T13:10:53Z</time>
      </trkpt>
      <trkpt lat="40.76252" lon="-74.0015">
        <ele>11</ele>
        <time>2012-04-10T13:10:55Z</time>
      </trkpt>
      <trkpt lat="40.76251" lon="-74.0015">
        <ele>10</ele>
        <time>2012-04-10T13:10:56Z</time>
      </trkpt>
      <trkpt lat="40.76249" lon="-74.0015">
        <ele>10</ele>
        <time>2012-04-10T13:10:57Z</time>
      </trkpt>
      <trkpt lat="40.76248" lon="-74.0015">
        <ele>10</ele>
        <time>2012-04-10T13:10:58Z</time>
      </trkpt>
      <trkpt lat="40.76247" lon="-74.00152">
        <ele>9</ele>
        <time>2012-04-10T13:11:00Z</time>
      </trkpt>
      <trkpt lat="40.76245" lon="-74.00153">
        <ele>8</ele>
        <time>2012-04-10T13:11:02Z</time>
      </trkpt>
      <trkpt lat="40.76243" lon="-74.00154">
        <ele>7</ele>
        <time>2012-04-10T13:11:04Z</time>
      </trkpt>
      <trkpt lat="40.76242" lon="-74.00156">
        <ele>6</ele>
        <time>2012-04-10T13:11:06Z</time>
      </trkpt>
      <trkpt lat="40.76241" lon="-74.00156">
        <ele>6</ele>
        <time>2012-04-10T13:11:06Z</time>
      </trkpt>
      <trkpt lat="40.7624" lon="-74.00157">
        <ele>6</ele>
        <time>2012-04-10T13:11:08Z</time>
      </trkpt>
      <trkpt lat="40.76239" lon="-74.00157">
        <ele>6</ele>
        <time>2012-04-10T13:11:09Z</time>
      </trkpt>
      <trkpt lat="40.76237" lon="-74.00158">
        <ele>6</ele>
        <time>2012-04-10T13:11:10Z</time>
      </trkpt>
      <trkpt lat="40.76236" lon="-74.00159">
        <ele>6</ele>
        <time>2012-04-10T13:11:11Z</time>
      </trkpt>
      <trkpt lat="40.76235" lon="-74.00159">
        <ele>6</ele>
        <time>2012-04-10T13:11:12Z</time>
      </trkpt>
      <trkpt lat="40.76234" lon="-74.00159">
        <ele>5</ele>
        <time>2012-04-10T13:11:13Z</time>
      </trkpt>
      <trkpt lat="40.76233" lon="-74.0016">
        <ele>5</ele>
        <time>2012-04-10T13:11:13Z</time>
      </trkpt>
      <trkpt lat="40.7623" lon="-74.00161">
        <ele>5</ele>
        <time>2012-04-10T13:11:16Z</time>
      </trkpt>
      <trkpt lat="40.76228" lon="-74.00163">
        <ele>5</ele>
        <time>2012-04-10T13:11:18Z</time>
      </trkpt>
      <trkpt lat="40.76227" lon="-74.00163">
        <ele>5</ele>
        <time>2012-04-10T13:11:18Z</time>
      </trkpt>
      <trkpt lat="40.76226" lon="-74.00164">
        <ele>5</ele>
        <time>2012-04-10T13:11:21Z</time>
      </trkpt>
      <trkpt lat="40.76224" lon="-74.00166">
        <ele>5</ele>
        <time>2012-04-10T13:11:22Z</time>
      </trkpt>
      <trkpt lat="40.76223" lon="-74.00168">
        <ele>5</ele>
        <time>2012-04-10T13:11:25Z</time>
      </trkpt>
      <trkpt lat="40.76224" lon="-74.00168">
        <ele>5</ele>
        <time>2012-04-10T13:11:31Z</time>
      </trkpt>
      <trkpt lat="40.76226" lon="-74.00169">
        <ele>5</ele>
        <time>2012-04-10T13:11:33Z</time>
      </trkpt>
      <trkpt lat="40.76227" lon="-74.0017">
        <ele>5</ele>
        <time>2012-04-10T13:11:34Z</time>
      </trkpt>
      <trkpt lat="40.76228" lon="-74.0017">
        <ele>5</ele>
        <time>2012-04-10T13:11:38Z</time>
      </trkpt>
      <trkpt lat="40.76228" lon="-74.00168">
        <ele>5</ele>
        <time>2012-04-10T13:11:42Z</time>
      </trkpt>
      <trkpt lat="40.76226" lon="-74.00169">
        <ele>5</ele>
        <time>2012-04-10T13:11:44Z</time>
      </trkpt>
      <trkpt lat="40.76225" lon="-74.00169">
        <ele>5</ele>
        <time>2012-04-10T13:11:45Z</time>
      </trkpt>
      <trkpt lat="40.76223" lon="-74.00169">
        <ele>5</ele>
        <time>2012-04-10T13:11:45Z</time>
      </trkpt>
      <trkpt lat="40.76222" lon="-74.00169">
        <ele>5</ele>
        <time>2012-04-10T13:11:47Z</time>
      </trkpt>
      <trkpt lat="40.76221" lon="-74.00171">
        <ele>5</ele>
        <time>2012-04-10T13:11:49Z</time>
      </trkpt>
      <trkpt lat="40.7622" lon="-74.00172">
        <ele>5</ele>
        <time>2012-04-10T13:11:51Z</time>
      </trkpt>
      <trkpt lat="40.76218" lon="-74.00174">
        <ele>5</ele>
        <time>2012-04-10T13:11:53Z</time>
      </trkpt>
      <trkpt lat="40.76216" lon="-74.00175">
        <ele>5</ele>
        <time>2012-04-10T13:11:55Z</time>
      </trkpt>
      <trkpt lat="40.76215" lon="-74.00177">
        <ele>5</ele>
        <time>2012-04-10T13:11:57Z</time>
      </trkpt>
      <trkpt lat="40.76213" lon="-74.00179">
        <ele>5</ele>
        <time>2012-04-10T13:11:58Z</time>
      </trkpt>
      <trkpt lat="40.76211" lon="-74.00181">
        <ele>5</ele>
        <time>2012-04-10T13:12:01Z</time>
      </trkpt>
      <trkpt lat="40.76209" lon="-74.00182">
        <ele>5</ele>
        <time>2012-04-10T13:12:03Z</time>
      </trkpt>
      <trkpt lat="40.76207" lon="-74.00185">
        <ele>5</ele>
        <time>2012-04-10T13:12:05Z</time>
      </trkpt>
      <trkpt lat="40.76206" lon="-74.00186">
        <ele>5</ele>
        <time>2012-04-10T13:12:07Z</time>
      </trkpt>
      <trkpt lat="40.76205" lon="-74.00186">
        <ele>5</ele>
        <time>2012-04-10T13:12:08Z</time>
      </trkpt>
      <trkpt lat="40.76204" lon="-74.00187">
        <ele>5</ele>
        <time>2012-04-10T13:12:16Z</time>
      </trkpt>
      <trkpt lat="40.76202" lon="-74.00188">
        <ele>5</ele>
        <time>2012-04-10T13:12:18Z</time>
      </trkpt>
      <trkpt lat="40.76201" lon="-74.00188">
        <ele>5</ele>
        <time>2012-04-10T13:12:19Z</time>
      </trkpt>
      <trkpt lat="40.76199" lon="-74.00188">
        <ele>5</ele>
        <time>2012-04-10T13:12:20Z</time>
      </trkpt>
      <trkpt lat="40.76197" lon="-74.00188">
        <ele>5</ele>
        <time>2012-04-10T13:12:22Z</time>
      </trkpt>
      <trkpt lat="40.76196" lon="-74.00188">
        <ele>5</ele>
        <time>2012-04-10T13:12:23Z</time>
      </trkpt>
      <trkpt lat="40.76195" lon="-74.00191">
        <ele>5</ele>
        <time>2012-04-10T13:12:25Z</time>
      </trkpt>
      <trkpt lat="40.76193" lon="-74.00193">
        <ele>5</ele>
        <time>2012-04-10T13:12:26Z</time>
      </trkpt>
      <trkpt lat="40.76191" lon="-74.00195">
        <ele>5</ele>
        <time>2012-04-10T13:12:29Z</time>
      </trkpt>
      <trkpt lat="40.76191" lon="-74.00196">
        <ele>5</ele>
        <time>2012-04-10T13:12:30Z</time>
      </trkpt>
      <trkpt lat="40.7619" lon="-74.00198">
        <ele>5</ele>
        <time>2012-04-10T13:12:31Z</time>
      </trkpt>
      <trkpt lat="40.76189" lon="-74.00199">
        <ele>5</ele>
        <time>2012-04-10T13:12:33Z</time>
      </trkpt>
      <trkpt lat="40.76188" lon="-74.00199">
        <ele>5</ele>
        <time>2012-04-10T13:12:46Z</time>
      </trkpt>
      <trkpt lat="40.76189" lon="-74.00201">
        <ele>5</ele>
        <time>2012-04-10T13:12:54Z</time>
      </trkpt>
      <trkpt lat="40.7619" lon="-74.00199">
        <ele>4</ele>
        <time>2012-04-10T13:12:59Z</time>
      </trkpt>
      <trkpt lat="40.76191" lon="-74.00199">
        <ele>4</ele>
        <time>2012-04-10T13:13:05Z</time>
      </trkpt>
      <trkpt lat="40.7619" lon="-74.00199">
        <ele>4</ele>
        <time>2012-04-10T13:13:14Z</time>
      </trkpt>
      <trkpt lat="40.76188" lon="-74.002">
        <ele>4</ele>
        <time>2012-04-10T13:13:16Z</time>
      </trkpt>
      <trkpt lat="40.76186" lon="-74.00201">
        <ele>4</ele>
        <time>2012-04-10T13:13:18Z</time>
      </trkpt>
      <trkpt lat="40.76184" lon="-74.00201">
        <ele>4</ele>
        <time>2012-04-10T13:13:20Z</time>
      </trkpt>
      <trkpt lat="40.76182" lon="-74.00203">
        <ele>4</ele>
        <time>2012-04-10T13:13:21Z</time>
      </trkpt>
      <trkpt lat="40.76181" lon="-74.00203">
        <ele>4</ele>
        <time>2012-04-10T13:13:23Z</time>
      </trkpt>
      <trkpt lat="40.76179" lon="-74.00204">
        <ele>4</ele>
        <time>2012-04-10T13:13:25Z</time>
      </trkpt>
      <trkpt lat="40.76178" lon="-74.00204">
        <ele>4</ele>
        <time>2012-04-10T13:13:27Z</time>
      </trkpt>
      <trkpt lat="40.76176" lon="-74.00204">
        <ele>4</ele>
        <time>2012-04-10T13:13:29Z</time>
      </trkpt>
      <trkpt lat="40.76174" lon="-74.00205">
        <ele>4</ele>
        <time>2012-04-10T13:13:31Z</time>
      </trkpt>
      <trkpt lat="40.76172" lon="-74.00205">
        <ele>4</ele>
        <time>2012-04-10T13:13:33Z</time>
      </trkpt>
      <trkpt lat="40.76171" lon="-74.00206">
        <ele>4</ele>
        <time>2012-04-10T13:13:34Z</time>
      </trkpt>
      <trkpt lat="40.7617" lon="-74.00206">
        <ele>4</ele>
        <time>2012-04-10T13:13:35Z</time>
      </trkpt>
      <trkpt lat="40.76168" lon="-74.00207">
        <ele>4</ele>
        <time>2012-04-10T13:13:37Z</time>
      </trkpt>
      <trkpt lat="40.76166" lon="-74.00208">
        <ele>4</ele>
        <time>2012-04-10T13:13:39Z</time>
      </trkpt>
      <trkpt lat="40.76165" lon="-74.00208">
        <ele>4</ele>
        <time>2012-04-10T13:13:41Z</time>
      </trkpt>
      <trkpt lat="40.76163" lon="-74.00208">
        <ele>4</ele>
        <time>2012-04-10T13:13:43Z</time>
      </trkpt>
      <trkpt lat="40.76161" lon="-74.00207">
        <ele>4</ele>
        <time>2012-04-10T13:13:45Z</time>
      </trkpt>
      <trkpt lat="40.7616" lon="-74.00206">
        <ele>4</ele>
        <time>2012-04-10T13:13:46Z</time>
      </trkpt>
      <trkpt lat="40.76158" lon="-74.00205">
        <ele>4</ele>
        <time>2012-04-10T13:13:48Z</time>
      </trkpt>
      <trkpt lat="40.76156" lon="-74.00205">
        <ele>4</ele>
        <time>2012-04-10T13:13:50Z</time>
      </trkpt>
      <trkpt lat="40.76154" lon="-74.00205">
        <ele>4</ele>
        <time>2012-04-10T13:13:51Z</time>
      </trkpt>
      <trkpt lat="40.76153" lon="-74.00207">
        <ele>4</ele>
        <time>2012-04-10T13:13:53Z</time>
      </trkpt>
      <trkpt lat="40.76152" lon="-74.00207">
        <ele>4</ele>
        <time>2012-04-10T13:13:54Z</time>
      </trkpt>
      <trkpt lat="40.7615" lon="-74.00208">
        <ele>4</ele>
        <time>2012-04-10T13:13:55Z</time>
      </trkpt>
      <trkpt lat="40.76148" lon="-74.00208">
        <ele>4</ele>
        <time>2012-04-10T13:13:57Z</time>
      </trkpt>
      <trkpt lat="40.76146" lon="-74.0021">
        <ele>4</ele>
        <time>2012-04-10T13:13:59Z</time>
      </trkpt>
      <trkpt lat="40.76145" lon="-74.00211">
        <ele>4</ele>
        <time>2012-04-10T13:14:01Z</time>
      </trkpt>
      <trkpt lat="40.76143" lon="-74.00211">
        <ele>4</ele>
        <time>2012-04-10T13:14:02Z</time>
      </trkpt>
      <trkpt lat="40.76141" lon="-74.00213">
        <ele>4</ele>
        <time>2012-04-10T13:14:05Z</time>
      </trkpt>
      <trkpt lat="40.76139" lon="-74.00214">
        <ele>4</ele>
        <time>2012-04-10T13:14:07Z</time>
      </trkpt>
      <trkpt lat="40.76137" lon="-74.00215">
        <ele>4</ele>
        <time>2012-04-10T13:14:09Z</time>
      </trkpt>
      <trkpt lat="40.76136" lon="-74.00217">
        <ele>4</ele>
        <time>2012-04-10T13:14:11Z</time>
      </trkpt>
      <trkpt lat="40.76134" lon="-74.00219">
        <ele>4</ele>
        <time>2012-04-10T13:14:12Z</time>
      </trkpt>
      <trkpt lat="40.76132" lon="-74.0022">
        <ele>4</ele>
        <time>2012-04-10T13:14:15Z</time>
      </trkpt>
      <trkpt lat="40.7613" lon="-74.00221">
        <ele>4</ele>
        <time>2012-04-10T13:14:17Z</time>
      </trkpt>
      <trkpt lat="40.76129" lon="-74.00223">
        <ele>4</ele>
        <time>2012-04-10T13:14:19Z</time>
      </trkpt>
      <trkpt lat="40.76127" lon="-74.00224">
        <ele>4</ele>
        <time>2012-04-10T13:14:21Z</time>
      </trkpt>
      <trkpt lat="40.76125" lon="-74.00225">
        <ele>4</ele>
        <time>2012-04-10T13:14:23Z</time>
      </trkpt>
      <trkpt lat="40.76124" lon="-74.00225">
        <ele>4</ele>
        <time>2012-04-10T13:14:23Z</time>
      </trkpt>
      <trkpt lat="40.76122" lon="-74.00225">
        <ele>4</ele>
        <time>2012-04-10T13:14:25Z</time>
      </trkpt>
      <trkpt lat="40.7612" lon="-74.00227">
        <ele>4</ele>
        <time>2012-04-10T13:14:28Z</time>
      </trkpt>
      <trkpt lat="40.76119" lon="-74.00228">
        <ele>4</ele>
        <time>2012-04-10T13:14:29Z</time>
      </trkpt>
      <trkpt lat="40.76117" lon="-74.0023">
        <ele>4</ele>
        <time>2012-04-10T13:14:30Z</time>
      </trkpt>
      <trkpt lat="40.76115" lon="-74.00231">
        <ele>4</ele>
        <time>2012-04-10T13:14:33Z</time>
      </trkpt>
      <trkpt lat="40.76114" lon="-74.00233">
        <ele>4</ele>
        <time>2012-04-10T13:14:35Z</time>
      </trkpt>
      <trkpt lat="40.76113" lon="-74.00234">
        <ele>4</ele>
        <time>2012-04-10T13:14:36Z</time>
      </trkpt>
      <trkpt lat="40.76112" lon="-74.00236">
        <ele>4</ele>
        <time>2012-04-10T13:14:37Z</time>
      </trkpt>
      <trkpt lat="40.76111" lon="-74.00237">
        <ele>4</ele>
        <time>2012-04-10T13:14:39Z</time>
      </trkpt>
      <trkpt lat="40.76109" lon="-74.00237">
        <ele>4</ele>
        <time>2012-04-10T13:14:41Z</time>
      </trkpt>
      <trkpt lat="40.76107" lon="-74.00237">
        <ele>4</ele>
        <time>2012-04-10T13:14:43Z</time>
      </trkpt>
      <trkpt lat="40.76105" lon="-74.0024">
        <ele>4</ele>
        <time>2012-04-10T13:14:45Z</time>
      </trkpt>
      <trkpt lat="40.76104" lon="-74.00241">
        <ele>4</ele>
        <time>2012-04-10T13:14:45Z</time>
      </trkpt>
      <trkpt lat="40.76103" lon="-74.00243">
        <ele>4</ele>
        <time>2012-04-10T13:14:47Z</time>
      </trkpt>
      <trkpt lat="40.76102" lon="-74.00244">
        <ele>4</ele>
        <time>2012-04-10T13:14:48Z</time>
      </trkpt>
      <trkpt lat="40.761" lon="-74.00246">
        <ele>4</ele>
        <time>2012-04-10T13:14:50Z</time>
      </trkpt>
      <trkpt lat="40.76099" lon="-74.00248">
        <ele>4</ele>
        <time>2012-04-10T13:14:50Z</time>
      </trkpt>
      <trkpt lat="40.76097" lon="-74.00247">
        <ele>4</ele>
        <time>2012-04-10T13:14:51Z</time>
      </trkpt>
      <trkpt lat="40.76096" lon="-74.00247">
        <ele>4</ele>
        <time>2012-04-10T13:14:53Z</time>
      </trkpt>
      <trkpt lat="40.76094" lon="-74.00249">
        <ele>4</ele>
        <time>2012-04-10T13:14:55Z</time>
      </trkpt>
      <trkpt lat="40.76093" lon="-74.00251">
        <ele>4</ele>
        <time>2012-04-10T13:14:55Z</time>
      </trkpt>
      <trkpt lat="40.76092" lon="-74.00252">
        <ele>4</ele>
        <time>2012-04-10T13:14:57Z</time>
      </trkpt>
      <trkpt lat="40.76091" lon="-74.00253">
        <ele>4</ele>
        <time>2012-04-10T13:14:58Z</time>
      </trkpt>
      <trkpt lat="40.76089" lon="-74.00256">
        <ele>4</ele>
        <time>2012-04-10T13:14:59Z</time>
      </trkpt>
      <trkpt lat="40.76089" lon="-74.00257">
        <ele>4</ele>
        <time>2012-04-10T13:15:01Z</time>
      </trkpt>
      <trkpt lat="40.76088" lon="-74.00259">
        <ele>4</ele>
        <time>2012-04-10T13:15:02Z</time>
      </trkpt>
      <trkpt lat="40.76088" lon="-74.00261">
        <ele>4</ele>
        <time>2012-04-10T13:15:03Z</time>
      </trkpt>
      <trkpt lat="40.76088" lon="-74.00263">
        <ele>4</ele>
        <time>2012-04-10T13:15:04Z</time>
      </trkpt>
      <trkpt lat="40.76088" lon="-74.00266">
        <ele>4</ele>
        <time>2012-04-10T13:15:04Z</time>
      </trkpt>
      <trkpt lat="40.76086" lon="-74.00267">
        <ele>4</ele>
        <time>2012-04-10T13:15:07Z</time>
      </trkpt>
      <trkpt lat="40.76086" lon="-74.00269">
        <ele>4</ele>
        <time>2012-04-10T13:15:07Z</time>
      </trkpt>
      <trkpt lat="40.76086" lon="-74.0027">
        <ele>4</ele>
        <time>2012-04-10T13:15:09Z</time>
      </trkpt>
      <trkpt lat="40.76085" lon="-74.00272">
        <ele>4</ele>
        <time>2012-04-10T13:15:11Z</time>
      </trkpt>
      <trkpt lat="40.76085" lon="-74.00274">
        <ele>4</ele>
        <time>2012-04-10T13:15:11Z</time>
      </trkpt>
      <trkpt lat="40.76086" lon="-74.00275">
        <ele>4</ele>
        <time>2012-04-10T13:15:14Z</time>
      </trkpt>
      <trkpt lat="40.76087" lon="-74.00278">
        <ele>4</ele>
        <time>2012-04-10T13:15:15Z</time>
      </trkpt>
      <trkpt lat="40.76087" lon="-74.0028">
        <ele>4</ele>
        <time>2012-04-10T13:15:17Z</time>
      </trkpt>
      <trkpt lat="40.76088" lon="-74.00282">
        <ele>4</ele>
        <time>2012-04-10T13:15:18Z</time>
      </trkpt>
      <trkpt lat="40.76089" lon="-74.00285">
        <ele>4</ele>
        <time>2012-04-10T13:15:21Z</time>
      </trkpt>
      <trkpt lat="40.7609" lon="-74.00288">
        <ele>4</ele>
        <time>2012-04-10T13:15:23Z</time>
      </trkpt>
      <trkpt lat="40.7609" lon="-74.00289">
        <ele>4</ele>
        <time>2012-04-10T13:15:23Z</time>
      </trkpt>
      <trkpt lat="40.76091" lon="-74.00292">
        <ele>4</ele>
        <time>2012-04-10T13:15:26Z</time>
      </trkpt>
      <trkpt lat="40.76091" lon="-74.00294">
        <ele>4</ele>
        <time>2012-04-10T13:15:26Z</time>
      </trkpt>
      <trkpt lat="40.76091" lon="-74.00297">
        <ele>4</ele>
        <time>2012-04-10T13:15:27Z</time>
      </trkpt>
      <trkpt lat="40.76091" lon="-74.00299">
        <ele>4</ele>
        <time>2012-04-10T13:15:28Z</time>
      </trkpt>
      <trkpt lat="40.76091" lon="-74.00301">
        <ele>4</ele>
        <time>2012-04-10T13:15:29Z</time>
      </trkpt>
      <trkpt lat="40.76091" lon="-74.00302">
        <ele>4</ele>
        <time>2012-04-10T13:15:30Z</time>
      </trkpt>
      <trkpt lat="40.76091" lon="-74.00304">
        <ele>4</ele>
        <time>2012-04-10T13:15:32Z</time>
      </trkpt>
      <trkpt lat="40.76091" lon="-74.00305">
        <ele>4</ele>
        <time>2012-04-10T13:15:33Z</time>
      </trkpt>
      <trkpt lat="40.76092" lon="-74.00307">
        <ele>4</ele>
        <time>2012-04-10T13:15:34Z</time>
      </trkpt>
      <trkpt lat="40.76092" lon="-74.00311">
        <ele>4</ele>
        <time>2012-04-10T13:15:37Z</time>
      </trkpt>
      <trkpt lat="40.76092" lon="-74.00312">
        <ele>4</ele>
        <time>2012-04-10T13:15:38Z</time>
      </trkpt>
      <trkpt lat="40.76094" lon="-74.00314">
        <ele>4</ele>
        <time>2012-04-10T13:15:39Z</time>
      </trkpt>
      <trkpt lat="40.76094" lon="-74.00317">
        <ele>4</ele>
        <time>2012-04-10T13:15:42Z</time>
      </trkpt>
      <trkpt lat="40.76094" lon="-74.00319">
        <ele>4</ele>
        <time>2012-04-10T13:15:44Z</time>
      </trkpt>
      <trkpt lat="40.76095" lon="-74.0032">
        <ele>4</ele>
        <time>2012-04-10T13:15:51Z</time>
      </trkpt>
      <trkpt lat="40.76096" lon="-74.00319">
        <ele>4</ele>
        <time>2012-04-10T13:16:09Z</time>
      </trkpt>
      <trkpt lat="40.76096" lon="-74.00316">
        <ele>4</ele>
        <time>2012-04-10T13:16:11Z</time>
      </trkpt>
      <trkpt lat="40.76095" lon="-74.00315">
        <ele>4</ele>
        <time>2012-04-10T13:16:12Z</time>
      </trkpt>
      <trkpt lat="40.76095" lon="-74.00314">
        <ele>4</ele>
        <time>2012-04-10T13:16:12Z</time>
      </trkpt>
      <trkpt lat="40.76094" lon="-74.00311">
        <ele>4</ele>
        <time>2012-04-10T13:16:15Z</time>
      </trkpt>
      <trkpt lat="40.76094" lon="-74.00308">
        <ele>4</ele>
        <time>2012-04-10T13:16:17Z</time>
      </trkpt>
      <trkpt lat="40.76093" lon="-74.00305">
        <ele>4</ele>
        <time>2012-04-10T13:16:18Z</time>
      </trkpt>
      <trkpt lat="40.76093" lon="-74.00304">
        <ele>4</ele>
        <time>2012-04-10T13:16:20Z</time>
      </trkpt>
      <trkpt lat="40.76093" lon="-74.00302">
        <ele>4</ele>
        <time>2012-04-10T13:16:20Z</time>
      </trkpt>
      <trkpt lat="40.76092" lon="-74.003">
        <ele>4</ele>
        <time>2012-04-10T13:16:23Z</time>
      </trkpt>
      <trkpt lat="40.76092" lon="-74.00298">
        <ele>4</ele>
        <time>2012-04-10T13:16:23Z</time>
      </trkpt>
      <trkpt lat="40.76091" lon="-74.00296">
        <ele>4</ele>
        <time>2012-04-10T13:16:26Z</time>
      </trkpt>
      <trkpt lat="40.76091" lon="-74.00294">
        <ele>4</ele>
        <time>2012-04-10T13:16:28Z</time>
      </trkpt>
      <trkpt lat="40.76091" lon="-74.00292">
        <ele>4</ele>
        <time>2012-04-10T13:16:30Z</time>
      </trkpt>
      <trkpt lat="40.76091" lon="-74.00291">
        <ele>4</ele>
        <time>2012-04-10T13:16:32Z</time>
      </trkpt>
      <trkpt lat="40.7609" lon="-74.00288">
        <ele>4</ele>
        <time>2012-04-10T13:16:34Z</time>
      </trkpt>
      <trkpt lat="40.7609" lon="-74.00285">
        <ele>5</ele>
        <time>2012-04-10T13:16:35Z</time>
      </trkpt>
      <trkpt lat="40.7609" lon="-74.00285">
        <ele>5</ele>
        <time>2012-04-10T13:16:37Z</time>
      </trkpt>
      <trkpt lat="40.7609" lon="-74.00282">
        <ele>6</ele>
        <time>2012-04-10T13:16:38Z</time>
      </trkpt>
      <trkpt lat="40.7609" lon="-74.0028">
        <ele>6</ele>
        <time>2012-04-10T13:16:40Z</time>
      </trkpt>
      <trkpt lat="40.76089" lon="-74.00278">
        <ele>6</ele>
        <time>2012-04-10T13:16:40Z</time>
      </trkpt>
      <trkpt lat="40.76089" lon="-74.00277">
        <ele>6</ele>
        <time>2012-04-10T13:16:42Z</time>
      </trkpt>
      <trkpt lat="40.76089" lon="-74.00275">
        <ele>6</ele>
        <time>2012-04-10T13:16:43Z</time>
      </trkpt>
      <trkpt lat="40.76089" lon="-74.00272">
        <ele>6</ele>
        <time>2012-04-10T13:16:48Z</time>
      </trkpt>
      <trkpt lat="40.76089" lon="-74.0027">
        <ele>6</ele>
        <time>2012-04-10T13:16:49Z</time>
      </trkpt>
      <trkpt lat="40.76088" lon="-74.00267">
        <ele>6</ele>
        <time>2012-04-10T13:16:51Z</time>
      </trkpt>
      <trkpt lat="40.76087" lon="-74.00266">
        <ele>6</ele>
        <time>2012-04-10T13:16:53Z</time>
      </trkpt>
      <trkpt lat="40.76087" lon="-74.00263">
        <ele>6</ele>
        <time>2012-04-10T13:16:54Z</time>
      </trkpt>
      <trkpt lat="40.76089" lon="-74.00262">
        <ele>6</ele>
        <time>2012-04-10T13:16:57Z</time>
      </trkpt>
      <trkpt lat="40.76091" lon="-74.00262">
        <ele>6</ele>
        <time>2012-04-10T13:16:58Z</time>
      </trkpt>
      <trkpt lat="40.76093" lon="-74.00262">
        <ele>7</ele>
        <time>2012-04-10T13:16:59Z</time>
      </trkpt>
      <trkpt lat="40.76094" lon="-74.00262">
        <ele>9</ele>
        <time>2012-04-10T13:17:01Z</time>
      </trkpt>
      <trkpt lat="40.76096" lon="-74.0026">
        <ele>11</ele>
        <time>2012-04-10T13:17:04Z</time>
      </trkpt>
      <trkpt lat="40.76098" lon="-74.00259">
        <ele>11</ele>
        <time>2012-04-10T13:17:06Z</time>
      </trkpt>
      <trkpt lat="40.76099" lon="-74.00256">
        <ele>11</ele>
        <time>2012-04-10T13:17:07Z</time>
      </trkpt>
      <trkpt lat="40.76101" lon="-74.00255">
        <ele>11</ele>
        <time>2012-04-10T13:17:10Z</time>
      </trkpt>
      <trkpt lat="40.76103" lon="-74.00253">
        <ele>11</ele>
        <time>2012-04-10T13:17:11Z</time>
      </trkpt>
      <trkpt lat="40.76104" lon="-74.00251">
        <ele>11</ele>
        <time>2012-04-10T13:17:13Z</time>
      </trkpt>
      <trkpt lat="40.76106" lon="-74.00249">
        <ele>11</ele>
        <time>2012-04-10T13:17:15Z</time>
      </trkpt>
      <trkpt lat="40.76108" lon="-74.00248">
        <ele>11</ele>
        <time>2012-04-10T13:17:17Z</time>
      </trkpt>
      <trkpt lat="40.76109" lon="-74.00246">
        <ele>11</ele>
        <time>2012-04-10T13:17:19Z</time>
      </trkpt>
      <trkpt lat="40.76111" lon="-74.00244">
        <ele>11</ele>
        <time>2012-04-10T13:17:22Z</time>
      </trkpt>
      <trkpt lat="40.76114" lon="-74.00243">
        <ele>11</ele>
        <time>2012-04-10T13:17:23Z</time>
      </trkpt>
      <trkpt lat="40.76116" lon="-74.00241">
        <ele>11</ele>
        <time>2012-04-10T13:17:25Z</time>
      </trkpt>
      <trkpt lat="40.76118" lon="-74.0024">
        <ele>11</ele>
        <time>2012-04-10T13:17:27Z</time>
      </trkpt>
      <trkpt lat="40.7612" lon="-74.00238">
        <ele>11</ele>
        <time>2012-04-10T13:17:29Z</time>
      </trkpt>
      <trkpt lat="40.76121" lon="-74.00237">
        <ele>11</ele>
        <time>2012-04-10T13:17:31Z</time>
      </trkpt>
      <trkpt lat="40.76123" lon="-74.00234">
        <ele>11</ele>
        <time>2012-04-10T13:17:34Z</time>
      </trkpt>
      <trkpt lat="40.76125" lon="-74.00233">
        <ele>11</ele>
        <time>2012-04-10T13:17:34Z</time>
      </trkpt>
      <trkpt lat="40.76126" lon="-74.00233">
        <ele>11</ele>
        <time>2012-04-10T13:17:35Z</time>
      </trkpt>
      <trkpt lat="40.76127" lon="-74.00231">
        <ele>11</ele>
        <time>2012-04-10T13:17:36Z</time>
      </trkpt>
      <trkpt lat="40.76128" lon="-74.0023">
        <ele>11</ele>
        <time>2012-04-10T13:17:37Z</time>
      </trkpt>
      <trkpt lat="40.7613" lon="-74.00229">
        <ele>11</ele>
        <time>2012-04-10T13:17:39Z</time>
      </trkpt>
      <trkpt lat="40.76132" lon="-74.00227">
        <ele>11</ele>
        <time>2012-04-10T13:17:41Z</time>
      </trkpt>
      <trkpt lat="40.76133" lon="-74.00227">
        <ele>11</ele>
        <time>2012-04-10T13:17:42Z</time>
      </trkpt>
      <trkpt lat="40.76136" lon="-74.00225">
        <ele>11</ele>
        <time>2012-04-10T13:17:45Z</time>
      </trkpt>
      <trkpt lat="40.76137" lon="-74.00224">
        <ele>11</ele>
        <time>2012-04-10T13:17:45Z</time>
      </trkpt>
      <trkpt lat="40.76138" lon="-74.00224">
        <ele>11</ele>
        <time>2012-04-10T13:17:46Z</time>
      </trkpt>
      <trkpt lat="40.76139" lon="-74.00223">
        <ele>11</ele>
        <time>2012-04-10T13:17:47Z</time>
      </trkpt>
      <trkpt lat="40.76141" lon="-74.00221">
        <ele>11</ele>
        <time>2012-04-10T13:17:50Z</time>
      </trkpt>
      <trkpt lat="40.76143" lon="-74.0022">
        <ele>11</ele>
        <time>2012-04-10T13:17:50Z</time>
      </trkpt>
      <trkpt lat="40.76144" lon="-74.00219">
        <ele>11</ele>
        <time>2012-04-10T13:17:52Z</time>
      </trkpt>
      <trkpt lat="40.76146" lon="-74.00217">
        <ele>11</ele>
        <time>2012-04-10T13:17:55Z</time>
      </trkpt>
      <trkpt lat="40.76147" lon="-74.00217">
        <ele>11</ele>
        <time>2012-04-10T13:17:55Z</time>
      </trkpt>
      <trkpt lat="40.76149" lon="-74.00215">
        <ele>11</ele>
        <time>2012-04-10T13:17:57Z</time>
      </trkpt>
      <trkpt lat="40.76151" lon="-74.00214">
        <ele>11</ele>
        <time>2012-04-10T13:18:00Z</time>
      </trkpt>
      <trkpt lat="40.76152" lon="-74.00214">
        <ele>11</ele>
        <time>2012-04-10T13:18:00Z</time>
      </trkpt>
      <trkpt lat="40.76154" lon="-74.00215">
        <ele>11</ele>
        <time>2012-04-10T13:18:02Z</time>
      </trkpt>
      <trkpt lat="40.76156" lon="-74.00217">
        <ele>11</ele>
        <time>2012-04-10T13:18:05Z</time>
      </trkpt>
      <trkpt lat="40.76158" lon="-74.00218">
        <ele>11</ele>
        <time>2012-04-10T13:18:06Z</time>
      </trkpt>
      <trkpt lat="40.7616" lon="-74.00218">
        <ele>11</ele>
        <time>2012-04-10T13:18:07Z</time>
      </trkpt>
      <trkpt lat="40.76161" lon="-74.00218">
        <ele>11</ele>
        <time>2012-04-10T13:18:09Z</time>
      </trkpt>
      <trkpt lat="40.76162" lon="-74.00217">
        <ele>11</ele>
        <time>2012-04-10T13:18:10Z</time>
      </trkpt>
      <trkpt lat="40.76164" lon="-74.00217">
        <ele>11</ele>
        <time>2012-04-10T13:18:10Z</time>
      </trkpt>
      <trkpt lat="40.76165" lon="-74.00217">
        <ele>11</ele>
        <time>2012-04-10T13:18:11Z</time>
      </trkpt>
      <trkpt lat="40.76166" lon="-74.00216">
        <ele>11</ele>
        <time>2012-04-10T13:18:12Z</time>
      </trkpt>
      <trkpt lat="40.76167" lon="-74.00215">
        <ele>11</ele>
        <time>2012-04-10T13:18:13Z</time>
      </trkpt>
      <trkpt lat="40.76168" lon="-74.00215">
        <ele>11</ele>
        <time>2012-04-10T13:18:15Z</time>
      </trkpt>
      <trkpt lat="40.7617" lon="-74.00214">
        <ele>11</ele>
        <time>2012-04-10T13:18:15Z</time>
      </trkpt>
      <trkpt lat="40.76171" lon="-74.00214">
        <ele>11</ele>
        <time>2012-04-10T13:18:16Z</time>
      </trkpt>
      <trkpt lat="40.76173" lon="-74.00212">
        <ele>11</ele>
        <time>2012-04-10T13:18:18Z</time>
      </trkpt>
      <trkpt lat="40.76174" lon="-74.00211">
        <ele>11</ele>
        <time>2012-04-10T13:18:19Z</time>
      </trkpt>
      <trkpt lat="40.76176" lon="-74.00211">
        <ele>11</ele>
        <time>2012-04-10T13:18:21Z</time>
      </trkpt>
      <trkpt lat="40.76177" lon="-74.0021">
        <ele>11</ele>
        <time>2012-04-10T13:18:21Z</time>
      </trkpt>
      <trkpt lat="40.76178" lon="-74.00209">
        <ele>11</ele>
        <time>2012-04-10T13:18:22Z</time>
      </trkpt>
      <trkpt lat="40.76179" lon="-74.00208">
        <ele>11</ele>
        <time>2012-04-10T13:18:23Z</time>
      </trkpt>
      <trkpt lat="40.76181" lon="-74.00208">
        <ele>11</ele>
        <time>2012-04-10T13:18:24Z</time>
      </trkpt>
      <trkpt lat="40.76182" lon="-74.00208">
        <ele>11</ele>
        <time>2012-04-10T13:18:26Z</time>
      </trkpt>
      <trkpt lat="40.76183" lon="-74.00206">
        <ele>11</ele>
        <time>2012-04-10T13:18:27Z</time>
      </trkpt>
      <trkpt lat="40.76185" lon="-74.00205">
        <ele>11</ele>
        <time>2012-04-10T13:18:28Z</time>
      </trkpt>
      <trkpt lat="40.76186" lon="-74.00204">
        <ele>11</ele>
        <time>2012-04-10T13:18:29Z</time>
      </trkpt>
      <trkpt lat="40.76188" lon="-74.00203">
        <ele>11</ele>
        <time>2012-04-10T13:18:31Z</time>
      </trkpt>
      <trkpt lat="40.76189" lon="-74.00203">
        <ele>11</ele>
        <time>2012-04-10T13:18:32Z</time>
      </trkpt>
      <trkpt lat="40.7619" lon="-74.00202">
        <ele>11</ele>
        <time>2012-04-10T13:18:33Z</time>
      </trkpt>
      <trkpt lat="40.76191" lon="-74.00201">
        <ele>11</ele>
        <time>2012-04-10T13:18:34Z</time>
      </trkpt>
      <trkpt lat="40.76193" lon="-74.002">
        <ele>11</ele>
        <time>2012-04-10T13:18:36Z</time>
      </trkpt>
      <trkpt lat="40.76194" lon="-74.00199">
        <ele>11</ele>
        <time>2012-04-10T13:18:37Z</time>
      </trkpt>
      <trkpt lat="40.76196" lon="-74.00198">
        <ele>11</ele>
        <time>2012-04-10T13:18:38Z</time>
      </trkpt>
      <trkpt lat="40.76197" lon="-74.00197">
        <ele>11</ele>
        <time>2012-04-10T13:18:39Z</time>
      </trkpt>
      <trkpt lat="40.76198" lon="-74.00196">
        <ele>11</ele>
        <time>2012-04-10T13:18:40Z</time>
      </trkpt>
      <trkpt lat="40.76199" lon="-74.00195">
        <ele>11</ele>
        <time>2012-04-10T13:18:42Z</time>
      </trkpt>
      <trkpt lat="40.762" lon="-74.00194">
        <ele>11</ele>
        <time>2012-04-10T13:18:42Z</time>
      </trkpt>
      <trkpt lat="40.76202" lon="-74.00193">
        <ele>11</ele>
        <time>2012-04-10T13:18:43Z</time>
      </trkpt>
      <trkpt lat="40.76203" lon="-74.00191">
        <ele>11</ele>
        <time>2012-04-10T13:18:44Z</time>
      </trkpt>
      <trkpt lat="40.76204" lon="-74.0019">
        <ele>11</ele>
        <time>2012-04-10T13:18:45Z</time>
      </trkpt>
      <trkpt lat="40.76205" lon="-74.00189">
        <ele>11</ele>
        <time>2012-04-10T13:18:47Z</time>
      </trkpt>
      <trkpt lat="40.76207" lon="-74.00188">
        <ele>11</ele>
        <time>2012-04-10T13:18:47Z</time>
      </trkpt>
      <trkpt lat="40.76208" lon="-74.00187">
        <ele>10</ele>
        <time>2012-04-10T13:18:48Z</time>
      </trkpt>
      <trkpt lat="40.76209" lon="-74.00187">
        <ele>10</ele>
        <time>2012-04-10T13:18:49Z</time>
      </trkpt>
      <trkpt lat="40.7621" lon="-74.00186">
        <ele>10</ele>
        <time>2012-04-10T13:18:50Z</time>
      </trkpt>
      <trkpt lat="40.76212" lon="-74.00185">
        <ele>9</ele>
        <time>2012-04-10T13:18:53Z</time>
      </trkpt>
      <trkpt lat="40.76214" lon="-74.00184">
        <ele>9</ele>
        <time>2012-04-10T13:18:53Z</time>
      </trkpt>
      <trkpt lat="40.76216" lon="-74.00182">
        <ele>9</ele>
        <time>2012-04-10T13:18:55Z</time>
      </trkpt>
      <trkpt lat="40.76218" lon="-74.00181">
        <ele>9</ele>
        <time>2012-04-10T13:18:58Z</time>
      </trkpt>
      <trkpt lat="40.76219" lon="-74.0018">
        <ele>9</ele>
        <time>2012-04-10T13:18:58Z</time>
      </trkpt>
      <trkpt lat="40.76221" lon="-74.00178">
        <ele>9</ele>
        <time>2012-04-10T13:19:00Z</time>
      </trkpt>
      <trkpt lat="40.76223" lon="-74.00177">
        <ele>9</ele>
        <time>2012-04-10T13:19:01Z</time>
      </trkpt>
      <trkpt lat="40.76224" lon="-74.00176">
        <ele>9</ele>
        <time>2012-04-10T13:19:03Z</time>
      </trkpt>
      <trkpt lat="40.76226" lon="-74.00175">
        <ele>9</ele>
        <time>2012-04-10T13:19:04Z</time>
      </trkpt>
      <trkpt lat="40.76227" lon="-74.00173">
        <ele>9</ele>
        <time>2012-04-10T13:19:05Z</time>
      </trkpt>
      <trkpt lat="40.76228" lon="-74.00172">
        <ele>9</ele>
        <time>2012-04-10T13:19:06Z</time>
      </trkpt>
      <trkpt lat="40.76231" lon="-74.00171">
        <ele>9</ele>
        <time>2012-04-10T13:19:08Z</time>
      </trkpt>
      <trkpt lat="40.76233" lon="-74.00169">
        <ele>9</ele>
        <time>2012-04-10T13:19:10Z</time>
      </trkpt>
      <trkpt lat="40.76235" lon="-74.00167">
        <ele>9</ele>
        <time>2012-04-10T13:19:12Z</time>
      </trkpt>
      <trkpt lat="40.76236" lon="-74.00165">
        <ele>9</ele>
        <time>2012-04-10T13:19:15Z</time>
      </trkpt>
      <trkpt lat="40.76238" lon="-74.00163">
        <ele>9</ele>
        <time>2012-04-10T13:19:16Z</time>
      </trkpt>
      <trkpt lat="40.7624" lon="-74.00162">
        <ele>9</ele>
        <time>2012-04-10T13:19:18Z</time>
      </trkpt>
      <trkpt lat="40.76242" lon="-74.0016">
        <ele>9</ele>
        <time>2012-04-10T13:19:20Z</time>
      </trkpt>
      <trkpt lat="40.76244" lon="-74.00159">
        <ele>9</ele>
        <time>2012-04-10T13:19:22Z</time>
      </trkpt>
      <trkpt lat="40.76247" lon="-74.00159">
        <ele>9</ele>
        <time>2012-04-10T13:19:24Z</time>
      </trkpt>
      <trkpt lat="40.76249" lon="-74.00158">
        <ele>9</ele>
        <time>2012-04-10T13:19:27Z</time>
      </trkpt>
      <trkpt lat="40.76251" lon="-74.00157">
        <ele>9</ele>
        <time>2012-04-10T13:19:28Z</time>
      </trkpt>
      <trkpt lat="40.76253" lon="-74.00156">
        <ele>9</ele>
        <time>2012-04-10T13:19:30Z</time>
      </trkpt>
      <trkpt lat="40.76255" lon="-74.00156">
        <ele>9</ele>
        <time>2012-04-10T13:19:33Z</time>
      </trkpt>
      <trkpt lat="40.76257" lon="-74.00154">
        <ele>9</ele>
        <time>2012-04-10T13:19:34Z</time>
      </trkpt>
      <trkpt lat="40.76258" lon="-74.00154">
        <ele>9</ele>
        <time>2012-04-10T13:19:35Z</time>
      </trkpt>
      <trkpt lat="40.7626" lon="-74.00153">
        <ele>9</ele>
        <time>2012-04-10T13:19:37Z</time>
      </trkpt>
      <trkpt lat="40.76262" lon="-74.00153">
        <ele>9</ele>
        <time>2012-04-10T13:19:39Z</time>
      </trkpt>
      <trkpt lat="40.76263" lon="-74.00155">
        <ele>9</ele>
        <time>2012-04-10T13:19:41Z</time>
      </trkpt>
      <trkpt lat="40.76263" lon="-74.00156">
        <ele>9</ele>
        <time>2012-04-10T13:19:42Z</time>
      </trkpt>
      <trkpt lat="40.76263" lon="-74.00158">
        <ele>9</ele>
        <time>2012-04-10T13:19:43Z</time>
      </trkpt>
      <trkpt lat="40.76263" lon="-74.00159">
        <ele>9</ele>
        <time>2012-04-10T13:19:44Z</time>
      </trkpt>
      <trkpt lat="40.76263" lon="-74.00161">
        <ele>9</ele>
        <time>2012-04-10T13:19:46Z</time>
      </trkpt>
      <trkpt lat="40.76264" lon="-74.00163">
        <ele>9</ele>
        <time>2012-04-10T13:19:47Z</time>
      </trkpt>
      <trkpt lat="40.76266" lon="-74.00164">
        <ele>8</ele>
        <time>2012-04-10T13:19:49Z</time>
      </trkpt>
      <trkpt lat="40.76267" lon="-74.00164">
        <ele>8</ele>
        <time>2012-04-10T13:19:50Z</time>
      </trkpt>
      <trkpt lat="40.76267" lon="-74.00166">
        <ele>7</ele>
        <time>2012-04-10T13:19:52Z</time>
      </trkpt>
      <trkpt lat="40.76267" lon="-74.00167">
        <ele>7</ele>
        <time>2012-04-10T13:19:53Z</time>
      </trkpt>
      <trkpt lat="40.76268" lon="-74.00169">
        <ele>7</ele>
        <time>2012-04-10T13:19:55Z</time>
      </trkpt>
      <trkpt lat="40.7627" lon="-74.0017">
        <ele>7</ele>
        <time>2012-04-10T13:19:57Z</time>
      </trkpt>
      <trkpt lat="40.76271" lon="-74.00171">
        <ele>7</ele>
        <time>2012-04-10T13:19:59Z</time>
      </trkpt>
      <trkpt lat="40.76273" lon="-74.00172">
        <ele>7</ele>
        <time>2012-04-10T13:20:01Z</time>
      </trkpt>
      <trkpt lat="40.76278" lon="-74.00166">
        <ele>2</ele>
        <time>2012-04-10T13:21:55Z</time>
      </trkpt>
      <trkpt lat="40.76279" lon="-74.00172">
        <ele>2</ele>
        <time>2012-04-10T13:22:00Z</time>
      </trkpt>
      <trkpt lat="40.76279" lon="-74.00173">
        <ele>2</ele>
        <time>2012-04-10T13:22:03Z</time>
      </trkpt>
      <trkpt lat="40.7628" lon="-74.00175">
        <ele>2</ele>
        <time>2012-04-10T13:22:04Z</time>
      </trkpt>
      <trkpt lat="40.7628" lon="-74.00176">
        <ele>2</ele>
        <time>2012-04-10T13:22:05Z</time>
      </trkpt>
      <trkpt lat="40.76281" lon="-74.00182">
        <ele>2</ele>
        <time>2012-04-10T13:22:09Z</time>
      </trkpt>
      <trkpt lat="40.76282" lon="-74.00185">
        <ele>2</ele>
        <time>2012-04-10T13:22:10Z</time>
      </trkpt>
      <trkpt lat="40.76283" lon="-74.00188">
        <ele>2</ele>
        <time>2012-04-10T13:22:11Z</time>
      </trkpt>
      <trkpt lat="40.76283" lon="-74.00191">
        <ele>2</ele>
        <time>2012-04-10T13:22:12Z</time>
      </trkpt>
      <trkpt lat="40.76283" lon="-74.00193">
        <ele>2</ele>
        <time>2012-04-10T13:22:14Z</time>
      </trkpt>
      <trkpt lat="40.76282" lon="-74.00195">
        <ele>4</ele>
        <time>2012-04-10T13:22:17Z</time>
      </trkpt>
      <trkpt lat="40.76282" lon="-74.00196">
        <ele>4</ele>
        <time>2012-04-10T13:22:19Z</time>
      </trkpt>
      <trkpt lat="40.76282" lon="-74.00199">
        <ele>4</ele>
        <time>2012-04-10T13:22:21Z</time>
      </trkpt>
      <trkpt lat="40.76281" lon="-74.00201">
        <ele>4</ele>
        <time>2012-04-10T13:22:24Z</time>
      </trkpt>
      <trkpt lat="40.76281" lon="-74.00204">
        <ele>4</ele>
        <time>2012-04-10T13:22:26Z</time>
      </trkpt>
      <trkpt lat="40.76281" lon="-74.00204">
        <ele>4</ele>
        <time>2012-04-10T13:22:27Z</time>
      </trkpt>
    </trkseg>
  </trk>
</gpx>